Time;durP1;ratioP1;P1;durP2;ratioP2;P2;SDS_P1;SDS_P2;PMS_P1;PMS_P2;Temp;Humidity;BMP_temperature;BMP_pressure;BME280_temperature;BME280_humidity;BME280_pressure;Samples;Min_cycle;Max_cycle;Signal;HPM_P1;HPM_P2
2022/06/13 00:00:44;;;;;;;;;;;15.50;99.90;;;;;;8374418;28;19947;-72
2022/06/13 00:04:45;;;;;;;;;;;15.50;99.90;;;;;;8379318;28;19939;-72
2022/06/13 00:08:47;;;;;;;;;;;15.50;99.90;;;;;;8372140;28;19943;-72
2022/06/13 00:12:49;;;;;;;;;;;15.40;99.90;;;;;;8380616;28;19931;-72
2022/06/13 00:16:51;;;;;;;;;;;15.40;99.90;;;;;;8378449;28;19935;-72
2022/06/13 00:20:53;;;;;;;;;;;15.30;99.90;;;;;;8372988;28;19932;-72
2022/06/13 00:24:55;;;;;;;;;;;15.30;99.90;;;;;;8363403;28;19929;-72
2022/06/13 00:28:56;;;;;;;;;;;15.30;99.90;;;;;;8406478;28;19924;-72
2022/06/13 00:32:58;;;;;;;;;;;15.30;99.90;;;;;;8379677;28;20043;-72
2022/06/13 00:37:00;;;;;;;;;;;15.20;99.90;;;;;;8391850;28;19954;-73
2022/06/13 00:41:01;;;;;;;;;;;15.20;99.90;;;;;;8370931;28;19991;-73
2022/06/13 00:45:03;;;;;;;;;;;15.20;99.90;;;;;;8382062;28;19932;-73
2022/06/13 00:49:07;;;;;;;;;;;15.20;99.90;;;;;;8383924;28;19931;-72
2022/06/13 00:53:16;;;;;;;;;;;15.20;99.90;;;;;;8383518;28;19932;-72
2022/06/13 00:57:21;;;;;;;;;;;15.20;99.90;;;;;;8377930;28;20011;-72
2022/06/13 01:01:23;;;;;;;;;;;15.20;99.90;;;;;;8377883;28;19928;-72
2022/06/13 01:05:26;;;;;;;;;;;15.10;99.90;;;;;;8371988;28;19924;-72
2022/06/13 01:14:07;;;;;;;;;;;15.10;99.90;;;;;;8376934;28;19935;-72
2022/06/13 01:18:09;;;;;;;;;;;15.00;99.90;;;;;;8386240;28;19924;-73
2022/06/13 01:22:40;;;;;;;;;;;15.00;99.90;;;;;;8386649;28;19939;-72
2022/06/13 01:27:00;;;;;;;;;;;15.00;99.90;;;;;;8347915;28;19928;-72
2022/06/13 01:31:17;;;;;;;;;;;15.00;99.90;;;;;;8387209;28;19924;-73
2022/06/13 01:35:18;;;;;;;;;;;15.00;99.90;;;;;;8374326;28;20330;-72
2022/06/13 01:39:35;;;;;;;;;;;15.00;99.90;;;;;;8376714;28;19928;-72
2022/06/13 01:43:46;;;;;;;;;;;15.00;99.90;;;;;;8373944;28;19925;-72
2022/06/13 01:47:53;;;;;;;;;;;15.00;99.90;;;;;;8373706;28;20261;-72
2022/06/13 01:51:55;;;;;;;;;;;15.00;99.90;;;;;;8364971;28;19951;-72
2022/06/13 01:55:56;;;;;;;;;;;15.00;99.90;;;;;;8363468;28;19928;-73
2022/06/13 02:00:08;;;;;;;;;;;15.00;99.90;;;;;;8388414;28;19931;-72
2022/06/13 02:04:29;;;;;;;;;;;15.00;99.90;;;;;;8394826;28;19932;-72
2022/06/13 02:08:38;;;;;;;;;;;15.00;99.90;;;;;;8375169;28;20399;-72
2022/06/13 02:12:42;;;;;;;;;;;14.90;99.90;;;;;;8373601;28;19924;-72
2022/06/13 02:16:47;;;;;;;;;;;14.90;99.90;;;;;;8365722;28;19924;-72
2022/06/13 02:20:50;;;;;;;;;;;14.90;99.90;;;;;;8383453;28;19925;-72
2022/06/13 02:24:58;;;;;;;;;;;14.90;99.90;;;;;;8382172;28;19931;-72
2022/06/13 02:29:07;;;;;;;;;;;14.90;99.90;;;;;;8380577;28;19933;-72
2022/06/13 02:33:09;;;;;;;;;;;14.90;99.90;;;;;;8413432;27;19968;-73
2022/06/13 02:37:14;;;;;;;;;;;14.90;99.90;;;;;;8377026;28;19956;-72
2022/06/13 02:41:20;;;;;;;;;;;14.90;99.90;;;;;;8367143;28;20550;-72
2022/06/13 02:45:21;;;;;;;;;;;14.90;99.90;;;;;;8379872;28;20375;-73
2022/06/13 02:49:26;;;;;;;;;;;14.90;99.90;;;;;;8374266;28;19929;-73
2022/06/13 02:53:39;;;;;;;;;;;14.80;99.90;;;;;;8385201;28;19947;-72
2022/06/13 02:57:53;;;;;;;;;;;14.80;99.90;;;;;;8371104;28;19931;-72
2022/06/13 03:01:57;;;;;;;;;;;14.80;99.90;;;;;;8380115;28;19929;-72
2022/06/13 03:06:01;;;;;;;;;;;14.80;99.90;;;;;;8388199;28;19944;-73
2022/06/13 03:10:16;;;;;;;;;;;14.80;99.90;;;;;;8375352;28;19928;-72
2022/06/13 03:14:18;;;;;;;;;;;14.80;99.90;;;;;;8375854;28;19925;-72
2022/06/13 03:18:25;;;;;;;;;;;14.80;99.90;;;;;;8383847;28;19928;-72
2022/06/13 03:22:47;;;;;;;;;;;14.80;99.90;;;;;;8386232;28;20849;-72
2022/06/13 03:26:55;;;;;;;;;;;14.80;99.90;;;;;;8380799;28;20356;-72
2022/06/13 03:31:08;;;;;;;;;;;14.80;99.90;;;;;;8379540;28;19924;-72
2022/06/13 03:35:11;;;;;;;;;;;14.80;99.90;;;;;;8395423;28;19924;-73
2022/06/13 03:39:24;;;;;;;;;;;14.80;99.90;;;;;;8380051;28;19932;-73
2022/06/13 03:43:29;;;;;;;;;;;14.80;99.90;;;;;;8377674;28;20253;-72
2022/06/13 03:47:36;;;;;;;;;;;14.80;99.90;;;;;;8370753;28;19993;-72
2022/06/13 03:51:40;;;;;;;;;;;14.70;99.90;;;;;;8362404;28;19939;-72
2022/06/13 03:56:05;;;;;;;;;;;14.70;99.90;;;;;;8391400;28;20431;-72
2022/06/13 04:00:10;;;;;;;;;;;14.70;99.90;;;;;;8378849;28;19929;-72
2022/06/13 04:04:20;;;;;;;;;;;14.80;99.90;;;;;;8378139;28;19932;-72
2022/06/13 04:08:21;;;;;;;;;;;14.80;99.90;;;;;;8371787;28;19925;-72
2022/06/13 04:12:42;;;;;;;;;;;14.80;99.90;;;;;;8397632;28;20316;-72
2022/06/13 04:16:46;;;;;;;;;;;14.70;99.90;;;;;;8384117;28;19932;-72
2022/06/13 04:20:52;;;;;;;;;;;14.70;99.90;;;;;;8385240;28;19952;-72
2022/06/13 04:24:57;;;;;;;;;;;14.80;99.90;;;;;;8374150;28;19925;-72
2022/06/13 04:29:04;;;;;;;;;;;14.80;99.90;;;;;;8386536;28;20047;-72
2022/06/13 04:33:10;;;;;;;;;;;14.80;99.90;;;;;;8387607;28;20372;-72
2022/06/13 04:37:12;;;;;;;;;;;14.80;99.90;;;;;;8388120;28;19970;-73
2022/06/13 04:41:15;;;;;;;;;;;14.80;99.90;;;;;;8386412;28;19933;-72
2022/06/13 04:45:19;;;;;;;;;;;14.80;99.90;;;;;;8381720;28;19933;-72
2022/06/13 04:49:24;;;;;;;;;;;14.80;99.90;;;;;;8387029;28;20172;-72
2022/06/13 04:53:28;;;;;;;;;;;14.80;99.90;;;;;;8404697;28;19928;-72
2022/06/13 04:57:30;;;;;;;;;;;14.90;99.90;;;;;;8381637;28;19928;-72
2022/06/13 05:01:40;;;;;;;;;;;14.90;99.90;;;;;;8381337;28;20399;-72
2022/06/13 05:05:46;;;;;;;;;;;15.00;99.90;;;;;;8402524;28;19928;-72
2022/06/13 05:09:50;;;;;;;;;;;15.10;99.90;;;;;;8385203;28;19939;-73
2022/06/13 05:13:55;;;;;;;;;;;15.20;99.90;;;;;;8388345;28;20010;-73
2022/06/13 05:18:21;;;;;;;;;;;15.20;99.90;;;;;;8394723;28;19940;-72
2022/06/13 05:22:22;;;;;;;;;;;15.30;99.90;;;;;;8384322;28;19924;-73
2022/06/13 05:26:29;;;;;;;;;;;15.50;99.90;;;;;;8387012;28;19929;-72
2022/06/13 05:30:31;;;;;;;;;;;15.50;99.90;;;;;;8383241;28;19940;-72
2022/06/13 05:34:39;;;;;;;;;;;15.60;99.90;;;;;;8382243;28;20029;-72
2022/06/13 05:38:46;;;;;;;;;;;15.60;99.90;;;;;;8386446;28;20376;-72
2022/06/13 05:42:48;;;;;;;;;;;15.70;99.90;;;;;;8386274;28;19925;-72
2022/06/13 05:46:50;;;;;;;;;;;15.70;99.90;;;;;;8378273;28;19959;-72
2022/06/13 05:50:52;;;;;;;;;;;15.70;99.90;;;;;;8374788;28;20348;-72
2022/06/13 05:54:55;;;;;;;;;;;15.80;99.90;;;;;;8380039;28;19932;-72
2022/06/13 05:58:58;;;;;;;;;;;15.90;99.90;;;;;;8389422;28;19925;-72
2022/06/13 06:02:59;;;;;;;;;;;16.00;99.90;;;;;;8393230;28;19932;-72
2022/06/13 06:07:01;;;;;;;;;;;16.00;99.90;;;;;;8385016;28;20204;-72
2022/06/13 06:11:03;;;;;;;;;;;16.00;99.90;;;;;;8373680;28;20373;-72
2022/06/13 06:15:05;;;;;;;;;;;16.10;99.90;;;;;;8387483;28;20298;-72
2022/06/13 06:19:07;;;;;;;;;;;16.20;99.90;;;;;;8389032;28;19932;-72
2022/06/13 06:23:09;;;;;;;;;;;16.30;99.90;;;;;;8395829;28;19936;-73
2022/06/13 06:27:12;;;;;;;;;;;16.40;99.90;;;;;;8393571;28;20396;-72
2022/06/13 06:31:14;;;;;;;;;;;16.40;99.90;;;;;;8389218;28;19931;-71
2022/06/13 06:35:15;;;;;;;;;;;16.40;99.90;;;;;;8389856;28;19924;-72
2022/06/13 06:39:17;;;;;;;;;;;16.40;99.90;;;;;;8381885;28;19944;-72
2022/06/13 06:43:19;;;;;;;;;;;16.40;99.90;;;;;;8384065;28;19925;-72
2022/06/13 06:47:20;;;;;;;;;;;16.50;99.90;;;;;;8382922;28;19947;-72
2022/06/13 06:51:24;;;;;;;;;;;16.60;99.90;;;;;;8392818;28;19959;-72
2022/06/13 06:59:53;;;;;;;;;;;16.80;99.90;;;;;;8383667;28;19929;-72
2022/06/13 07:03:55;;;;;;;;;;;16.70;99.90;;;;;;8385334;28;19940;-71
2022/06/13 07:07:56;;;;;;;;;;;16.70;99.90;;;;;;8384690;28;20014;-71
2022/06/13 07:11:58;;;;;;;;;;;16.70;99.90;;;;;;8374408;28;19947;-72
2022/06/13 07:16:00;;;;;;;;;;;16.70;99.90;;;;;;8383213;28;19924;-72
2022/06/13 07:20:02;;;;;;;;;;;16.80;99.90;;;;;;8416955;28;19978;-76
2022/06/13 07:24:04;;;;;;;;;;;16.90;99.90;;;;;;8384910;28;19925;-76
2022/06/13 07:28:06;;;;;;;;;;;16.80;99.90;;;;;;8397561;28;19929;-76
2022/06/13 07:32:10;;;;;;;;;;;16.70;99.90;;;;;;8382824;28;19928;-75
2022/06/13 07:36:13;;;;;;;;;;;16.60;99.90;;;;;;8379856;28;19947;-75
2022/06/13 07:40:14;;;;;;;;;;;16.50;99.90;;;;;;8389938;28;19932;-75
2022/06/13 07:44:21;;;;;;;;;;;16.40;99.90;;;;;;8395671;28;19951;-74
2022/06/13 07:48:23;;;;;;;;;;;16.40;99.90;;;;;;8395734;28;19925;-76
2022/06/13 07:52:25;;;;;;;;;;;16.60;99.90;;;;;;8399098;28;19924;-74
2022/06/13 07:56:28;;;;;;;;;;;16.70;99.90;;;;;;8389342;28;19925;-74
2022/06/13 08:00:32;;;;;;;;;;;16.90;99.90;;;;;;8389936;28;19931;-75
2022/06/13 08:04:34;;;;;;;;;;;16.90;99.90;;;;;;8391351;28;19924;-76
2022/06/13 08:08:56;;;;;;;;;;;16.90;99.90;;;;;;8389862;28;19929;-76
2022/06/13 08:12:57;;;;;;;;;;;16.90;99.90;;;;;;8407948;28;19939;-75
2022/06/13 08:16:59;;;;;;;;;;;17.00;99.90;;;;;;8373766;28;20474;-75
2022/06/13 08:21:01;;;;;;;;;;;17.10;99.90;;;;;;8369618;28;19944;-75
2022/06/13 08:25:02;;;;;;;;;;;17.20;99.90;;;;;;8374041;28;19925;-75
2022/06/13 08:29:05;;;;;;;;;;;17.20;99.90;;;;;;8369414;28;19932;-74
2022/06/13 08:33:08;;;;;;;;;;;17.10;99.90;;;;;;8370302;28;19924;-75
2022/06/13 08:37:09;;;;;;;;;;;17.10;99.90;;;;;;8368425;28;19924;-74
2022/06/13 08:41:11;;;;;;;;;;;17.20;99.90;;;;;;8369139;28;19947;-74
2022/06/13 08:45:13;;;;;;;;;;;17.20;99.90;;;;;;8370914;28;19924;-75
2022/06/13 08:49:41;;;;;;;;;;;17.20;99.90;;;;;;8370180;28;19924;-75
2022/06/13 08:53:53;;;;;;;;;;;17.30;99.90;;;;;;8374279;28;20248;-76
2022/06/13 08:58:00;;;;;;;;;;;17.40;99.90;;;;;;8376822;28;20011;-76
2022/06/13 09:02:07;;;;;;;;;;;17.50;99.90;;;;;;8390084;28;19936;-75
2022/06/13 09:06:14;;;;;;;;;;;17.40;99.90;;;;;;8377245;28;19932;-75
2022/06/13 09:10:23;;;;;;;;;;;17.40;99.90;;;;;;8389426;28;19969;-76
2022/06/13 09:14:29;;;;;;;;;;;17.30;99.90;;;;;;8374741;28;19931;-76
2022/06/13 09:18:45;;;;;;;;;;;17.20;99.90;;;;;;8377659;28;20570;-76
2022/06/13 09:22:53;;;;;;;;;;;17.20;99.90;;;;;;8377036;28;20406;-76
2022/06/13 09:26:59;;;;;;;;;;;17.30;99.90;;;;;;8374733;28;20376;-75
2022/06/13 09:31:06;;;;;;;;;;;17.30;99.90;;;;;;8377480;28;20316;-75
2022/06/13 09:35:16;;;;;;;;;;;17.20;99.90;;;;;;8375613;28;19932;-76
2022/06/13 09:39:18;;;;;;;;;;;17.10;99.90;;;;;;8375235;28;19940;-75
2022/06/13 09:43:39;;;;;;;;;;;17.00;99.90;;;;;;8374681;28;19928;-75
2022/06/13 09:47:47;;;;;;;;;;;17.10;99.90;;;;;;8361412;28;19968;-76
2022/06/13 09:52:02;;;;;;;;;;;17.30;99.90;;;;;;8365957;28;20385;-76
2022/06/13 09:56:10;;;;;;;;;;;17.30;99.90;;;;;;8361066;28;19924;-76
2022/06/13 10:00:18;;;;;;;;;;;17.40;99.90;;;;;;8368112;28;19933;-76
2022/06/13 10:04:35;;;;;;;;;;;17.40;99.90;;;;;;8372039;28;19940;-75
2022/06/13 10:08:49;;;;;;;;;;;17.50;99.90;;;;;;8382099;28;19963;-75
2022/06/13 10:12:59;;;;;;;;;;;17.50;99.90;;;;;;8386257;28;20702;-76
2022/06/13 10:17:19;;;;;;;;;;;17.50;99.90;;;;;;8372810;28;20483;-75
2022/06/13 10:21:43;;;;;;;;;;;17.50;99.90;;;;;;8368301;28;19967;-75
2022/06/13 10:26:03;;;;;;;;;;;17.60;99.90;;;;;;8367530;28;19940;-76
2022/06/13 10:30:07;;;;;;;;;;;17.70;99.90;;;;;;8383625;28;19933;-76
2022/06/13 10:34:08;;;;;;;;;;;17.80;99.90;;;;;;8389592;28;19979;-75
2022/06/13 10:38:25;;;;;;;;;;;17.80;99.90;;;;;;8376106;28;20284;-76
2022/06/13 10:42:30;;;;;;;;;;;17.90;99.90;;;;;;8368635;28;19936;-75
2022/06/13 10:46:31;;;;;;;;;;;17.90;99.90;;;;;;8370905;28;19933;-76
2022/06/13 10:50:42;;;;;;;;;;;17.90;99.90;;;;;;8370194;28;19932;-75
2022/06/13 10:54:45;;;;;;;;;;;18.00;99.90;;;;;;8369279;28;20376;-76
2022/06/13 10:58:51;;;;;;;;;;;17.90;99.90;;;;;;8370439;28;20566;-75
2022/06/13 11:03:08;;;;;;;;;;;17.80;99.90;;;;;;8379616;28;19931;-76
2022/06/13 11:07:13;;;;;;;;;;;17.80;99.90;;;;;;8383951;28;19931;-76
2022/06/13 11:11:27;;;;;;;;;;;17.80;99.90;;;;;;8405004;28;20376;-76
2022/06/13 11:24:29;;;;;;;;;;;17.80;99.90;;;;;;8364273;28;20077;-75
2022/06/13 11:28:37;;;;;;;;;;;17.80;99.90;;;;;;8362250;28;20248;-76
2022/06/13 11:32:40;;;;;;;;;;;17.90;99.90;;;;;;8362968;28;19940;-77
2022/06/13 11:36:55;;;;;;;;;;;18.00;99.90;;;;;;8372048;28;20498;-77
2022/06/13 11:41:09;;;;;;;;;;;18.10;99.90;;;;;;8363790;28;19935;-76
2022/06/13 11:45:37;;;;;;;;;;;18.10;99.90;;;;;;8358582;28;19925;-76
2022/06/13 11:49:40;;;;;;;;;;;18.20;99.90;;;;;;8372949;28;19928;-76
2022/06/13 11:53:42;;;;;;;;;;;18.20;99.90;;;;;;8374747;28;20276;-76
2022/06/13 11:57:46;;;;;;;;;;;18.20;99.90;;;;;;8374066;28;19947;-76
2022/06/13 12:01:54;;;;;;;;;;;18.20;99.90;;;;;;8375999;28;19925;-75
2022/06/13 12:06:05;;;;;;;;;;;18.20;99.90;;;;;;8369136;28;20323;-75
2022/06/13 12:10:17;;;;;;;;;;;18.10;99.90;;;;;;8370394;28;19931;-75
2022/06/13 12:14:19;;;;;;;;;;;18.00;99.90;;;;;;8373165;28;19928;-75
2022/06/13 12:18:29;;;;;;;;;;;17.90;99.90;;;;;;8376699;28;19924;-76
2022/06/13 12:22:41;;;;;;;;;;;18.00;99.90;;;;;;8373317;28;19925;-77
2022/06/13 12:26:45;;;;;;;;;;;18.10;99.90;;;;;;8377372;28;20269;-75
2022/06/13 12:31:03;;;;;;;;;;;18.10;99.90;;;;;;8391320;28;19952;-76
2022/06/13 12:35:05;;;;;;;;;;;18.20;99.90;;;;;;8376955;28;19928;-75
2022/06/13 12:39:07;;;;;;;;;;;18.30;99.90;;;;;;8367289;28;19924;-76
2022/06/13 12:43:21;;;;;;;;;;;18.50;99.90;;;;;;8366691;28;19929;-75
2022/06/13 12:47:30;;;;;;;;;;;18.60;99.90;;;;;;8339163;28;19979;-75
2022/06/13 12:51:47;;;;;;;;;;;18.60;99.90;;;;;;8327836;28;19932;-75
2022/06/13 12:55:50;;;;;;;;;;;18.60;99.90;;;;;;8326134;28;19940;-75
2022/06/13 13:00:07;;;;;;;;;;;18.40;99.90;;;;;;8345456;28;19925;-75
2022/06/13 13:04:09;;;;;;;;;;;18.30;99.90;;;;;;8323765;28;19933;-75
2022/06/13 13:08:11;;;;;;;;;;;18.40;99.90;;;;;;8333331;28;19929;-75
2022/06/13 13:12:31;;;;;;;;;;;18.50;99.90;;;;;;8328628;28;19932;-75
2022/06/13 13:16:42;;;;;;;;;;;18.60;99.90;;;;;;8334868;28;20387;-75
2022/06/13 13:20:46;;;;;;;;;;;18.60;99.90;;;;;;8334606;28;19929;-75
2022/06/13 13:25:07;;;;;;;;;;;18.70;99.90;;;;;;8323102;28;19947;-75
2022/06/13 13:29:27;;;;;;;;;;;18.80;99.90;;;;;;8330266;28;19952;-75
2022/06/13 13:33:39;;;;;;;;;;;18.90;99.90;;;;;;8325215;28;19940;-75
2022/06/13 13:37:46;;;;;;;;;;;18.90;99.90;;;;;;8326939;28;19933;-75
2022/06/13 13:41:54;;;;;;;;;;;18.80;99.90;;;;;;8330131;28;20036;-75
2022/06/13 13:46:13;;;;;;;;;;;18.80;99.90;;;;;;8348385;28;19936;-75
2022/06/13 13:50:17;;;;;;;;;;;18.80;99.90;;;;;;8359392;28;19924;-75
2022/06/13 13:54:31;;;;;;;;;;;18.90;99.90;;;;;;8362981;28;19954;-75
2022/06/13 13:58:35;;;;;;;;;;;19.00;99.90;;;;;;8391862;28;19936;-76
2022/06/13 14:02:40;;;;;;;;;;;19.00;99.90;;;;;;8359629;28;20321;-75
2022/06/13 14:06:45;;;;;;;;;;;19.10;99.90;;;;;;8359324;28;19925;-75
2022/06/13 14:10:51;;;;;;;;;;;19.20;99.90;;;;;;8360969;28;20296;-74
2022/06/13 14:14:59;;;;;;;;;;;19.20;99.90;;;;;;8372871;28;19921;-74
2022/06/13 14:19:03;;;;;;;;;;;19.20;99.90;;;;;;8359748;28;20347;-76
2022/06/13 14:23:06;;;;;;;;;;;19.20;99.90;;;;;;8392501;27;20014;-75
2022/06/13 14:27:09;;;;;;;;;;;19.30;99.90;;;;;;8362669;28;19954;-75
2022/06/13 14:31:11;;;;;;;;;;;19.30;99.90;;;;;;8393543;28;19932;-75
2022/06/13 14:35:33;;;;;;;;;;;19.40;99.90;;;;;;8389850;27;20326;-75
2022/06/13 14:39:54;;;;;;;;;;;19.40;99.90;;;;;;8392638;28;20628;-75
2022/06/13 14:44:05;;;;;;;;;;;19.50;99.90;;;;;;8354546;28;19938;-74
2022/06/13 14:48:25;;;;;;;;;;;19.50;99.90;;;;;;8357925;28;19927;-75
2022/06/13 14:52:31;;;;;;;;;;;19.40;99.90;;;;;;8388195;28;20375;-75
2022/06/13 14:56:35;;;;;;;;;;;19.40;99.90;;;;;;8364293;28;19932;-75
2022/06/13 15:00:36;;;;;;;;;;;19.40;99.90;;;;;;8362808;28;19921;-74
2022/06/13 15:04:38;;;;;;;;;;;19.40;99.90;;;;;;8362102;28;19921;-75
2022/06/13 15:08:46;;;;;;;;;;;19.30;99.90;;;;;;8359831;28;19967;-75
2022/06/13 15:12:48;;;;;;;;;;;19.40;99.90;;;;;;8357546;28;19932;-75
2022/06/13 15:16:51;;;;;;;;;;;19.50;99.90;;;;;;8359770;28;19955;-75
2022/06/13 15:20:54;;;;;;;;;;;19.40;99.90;;;;;;8364882;28;19920;-75
2022/06/13 15:24:57;;;;;;;;;;;19.30;99.90;;;;;;8390587;28;19932;-75
2022/06/13 15:29:07;;;;;;;;;;;19.40;99.90;;;;;;8356989;28;19946;-74
2022/06/13 15:33:11;;;;;;;;;;;19.40;99.90;;;;;;8353261;28;19989;-75
2022/06/13 15:37:13;;;;;;;;;;;19.40;99.90;;;;;;8360255;28;20446;-75
2022/06/13 15:41:32;;;;;;;;;;;19.60;99.90;;;;;;8371993;28;19920;-76
2022/06/13 15:45:35;;;;;;;;;;;19.80;99.90;;;;;;8360315;28;20395;-75
2022/06/13 15:49:38;;;;;;;;;;;20.00;99.90;;;;;;8356586;28;19928;-76
2022/06/13 15:53:40;;;;;;;;;;;20.00;99.90;;;;;;8361813;28;19929;-75
2022/06/13 15:57:45;;;;;;;;;;;19.90;99.90;;;;;;8360234;28;19921;-76
2022/06/13 16:01:48;;;;;;;;;;;19.80;99.90;;;;;;8404301;27;19924;-76
2022/06/13 16:06:10;;;;;;;;;;;19.80;99.90;;;;;;8373571;28;19924;-76
2022/06/13 16:10:17;;;;;;;;;;;19.80;99.90;;;;;;8367004;28;20185;-76
2022/06/13 16:14:19;;;;;;;;;;;19.60;99.90;;;;;;8375093;28;19928;-76
2022/06/13 16:18:30;;;;;;;;;;;19.40;99.90;;;;;;8373411;28;20329;-76
2022/06/13 16:22:31;;;;;;;;;;;19.30;99.90;;;;;;8370518;28;20292;-76
2022/06/13 16:26:35;;;;;;;;;;;19.40;99.90;;;;;;8371927;28;19936;-76
2022/06/13 16:30:38;;;;;;;;;;;19.30;99.90;;;;;;8370415;28;19932;-76
2022/06/13 16:34:47;;;;;;;;;;;19.10;99.90;;;;;;8371144;28;19955;-75
2022/06/13 16:38:49;;;;;;;;;;;19.20;99.90;;;;;;8382258;28;19925;-76
2022/06/13 16:42:51;;;;;;;;;;;19.30;99.90;;;;;;8381583;28;19927;-75
2022/06/13 16:46:58;;;;;;;;;;;19.30;99.90;;;;;;8379505;28;19947;-74
2022/06/13 16:51:01;;;;;;;;;;;19.00;99.90;;;;;;8383964;28;20002;-75
2022/06/13 16:55:08;;;;;;;;;;;18.80;99.90;;;;;;8397388;28;19943;-75
2022/06/13 16:59:23;;;;;;;;;;;19.00;99.90;;;;;;8377205;28;19928;-75
2022/06/13 17:03:45;;;;;;;;;;;19.20;99.90;;;;;;8374662;28;19935;-75
2022/06/13 17:08:02;;;;;;;;;;;19.40;99.90;;;;;;8370721;28;19937;-75
2022/06/13 17:12:07;;;;;;;;;;;19.50;99.90;;;;;;8378025;28;19928;-75
2022/06/13 17:16:09;;;;;;;;;;;20.00;99.90;;;;;;8373478;28;20455;-76
2022/06/13 17:20:16;;;;;;;;;;;20.40;99.90;;;;;;8376358;28;19932;-76
2022/06/13 17:24:18;;;;;;;;;;;20.70;99.90;;;;;;8373048;28;20300;-75
2022/06/13 17:32:40;;;;;;;;;;;20.80;99.90;;;;;;8372813;28;19939;-76
2022/06/13 17:36:42;;;;;;;;;;;20.30;99.90;;;;;;8376070;28;19935;-77
2022/06/13 17:40:45;;;;;;;;;;;19.90;99.90;;;;;;8377483;28;20364;-77
2022/06/13 17:44:47;;;;;;;;;;;19.40;99.90;;;;;;8374917;28;19928;-76
2022/06/13 17:48:49;;;;;;;;;;;19.10;99.90;;;;;;8397143;27;19932;-76
2022/06/13 17:52:50;;;;;;;;;;;19.00;99.90;;;;;;8357148;28;20334;-76
2022/06/13 17:56:53;;;;;;;;;;;18.80;99.90;;;;;;8363184;28;19928;-76
2022/06/13 18:00:54;;;;;;;;;;;18.70;99.90;;;;;;8398561;28;19935;-77
2022/06/13 18:04:56;;;;;;;;;;;18.50;99.80;;;;;;8367355;28;19937;-76
2022/06/13 18:08:59;;;;;;;;;;;18.50;99.90;;;;;;8364732;28;19959;-76
2022/06/13 18:13:03;;;;;;;;;;;18.50;99.90;;;;;;8337854;28;19928;-76
2022/06/13 18:17:06;;;;;;;;;;;18.60;99.90;;;;;;8355006;28;19921;-77
2022/06/13 18:21:08;;;;;;;;;;;18.70;99.90;;;;;;8335298;28;20431;-76
2022/06/13 18:25:10;;;;;;;;;;;18.70;99.80;;;;;;8328700;28;20487;-76
2022/06/13 18:29:13;;;;;;;;;;;18.60;99.90;;;;;;8333640;28;19974;-76
2022/06/13 18:33:15;;;;;;;;;;;18.60;99.90;;;;;;8360769;28;19924;-76
2022/06/13 18:37:17;;;;;;;;;;;18.60;99.90;;;;;;8363579;28;19927;-76
2022/06/13 18:41:19;;;;;;;;;;;18.60;99.70;;;;;;8356579;28;19921;-77
2022/06/13 18:45:22;;;;;;;;;;;18.50;99.60;;;;;;8367133;28;20398;-77
2022/06/13 18:49:23;;;;;;;;;;;18.40;99.60;;;;;;8391238;27;20000;-77
2022/06/13 18:53:25;;;;;;;;;;;18.40;99.70;;;;;;8360728;28;19921;-77
2022/06/13 18:57:27;;;;;;;;;;;18.40;99.60;;;;;;8365495;28;19927;-77
2022/06/13 19:01:35;;;;;;;;;;;18.30;99.60;;;;;;8360477;28;19920;-77
2022/06/13 19:05:37;;;;;;;;;;;18.20;99.60;;;;;;8357902;28;19943;-77
2022/06/13 19:09:42;;;;;;;;;;;18.20;99.60;;;;;;8355983;28;20227;-77
2022/06/13 19:13:45;;;;;;;;;;;18.10;99.60;;;;;;8357850;28;19928;-76
2022/06/13 19:17:47;;;;;;;;;;;18.10;99.40;;;;;;8353555;28;19932;-76
2022/06/13 19:21:48;;;;;;;;;;;18.00;99.20;;;;;;8360182;28;19929;-77
2022/06/13 19:25:53;;;;;;;;;;;17.90;99.10;;;;;;8363188;28;19961;-77
2022/06/13 19:29:55;;;;;;;;;;;17.80;99.00;;;;;;8365076;28;19960;-76
2022/06/13 19:33:58;;;;;;;;;;;17.80;99.00;;;;;;8355431;28;20380;-76
2022/06/13 19:38:00;;;;;;;;;;;17.70;99.10;;;;;;8356497;28;19928;-76
2022/06/13 19:42:03;;;;;;;;;;;17.70;99.20;;;;;;8372412;28;20386;-76
2022/06/13 19:46:05;;;;;;;;;;;17.60;99.20;;;;;;8369962;28;19928;-76
2022/06/13 19:50:08;;;;;;;;;;;17.50;99.20;;;;;;8370330;28;19928;-76
2022/06/13 19:54:11;;;;;;;;;;;17.40;99.20;;;;;;8370638;28;19992;-76
2022/06/13 19:58:14;;;;;;;;;;;17.30;99.30;;;;;;8373204;28;20025;-76
2022/06/13 20:02:16;;;;;;;;;;;17.20;99.30;;;;;;8369780;28;20272;-76
2022/06/13 20:10:39;;;;;;;;;;;17.00;99.40;;;;;;8355099;28;19927;-76
2022/06/13 20:14:40;;;;;;;;;;;16.90;99.50;;;;;;8360549;28;19978;-76
2022/06/13 20:18:49;;;;;;;;;;;16.80;99.60;;;;;;8360404;28;19978;-76
2022/06/13 20:22:51;;;;;;;;;;;16.70;99.60;;;;;;8361756;28;19994;-76
2022/06/13 20:26:53;;;;;;;;;;;16.50;99.60;;;;;;8364530;28;19932;-76
2022/06/13 20:30:56;;;;;;;;;;;16.40;99.50;;;;;;8359817;28;19987;-77
2022/06/13 20:35:09;;;;;;;;;;;16.30;99.60;;;;;;8363642;28;19928;-76
2022/06/13 20:39:12;;;;;;;;;;;16.30;99.70;;;;;;8365463;28;20391;-77
2022/06/13 20:43:15;;;;;;;;;;;16.20;99.70;;;;;;8359601;28;19925;-76
2022/06/13 20:47:17;;;;;;;;;;;16.10;99.60;;;;;;8363619;28;19944;-76
2022/06/13 20:51:19;;;;;;;;;;;16.00;99.60;;;;;;8367595;28;19939;-76
2022/06/13 20:55:21;;;;;;;;;;;15.90;99.60;;;;;;8368695;28;19947;-76
2022/06/13 20:59:27;;;;;;;;;;;15.80;99.70;;;;;;8397111;27;19921;-76
2022/06/13 21:03:28;;;;;;;;;;;15.80;99.80;;;;;;8389071;28;19952;-76
2022/06/13 21:07:30;;;;;;;;;;;15.70;99.80;;;;;;8383243;28;19928;-76
2022/06/13 21:11:32;;;;;;;;;;;15.60;99.70;;;;;;8385423;28;20172;-76
2022/06/13 21:15:35;;;;;;;;;;;15.50;99.70;;;;;;8398619;28;20256;-76
2022/06/13 21:19:37;;;;;;;;;;;15.40;99.80;;;;;;8392139;28;19928;-76
2022/06/13 21:23:38;;;;;;;;;;;15.40;99.80;;;;;;8390663;28;19939;-76
2022/06/13 21:27:40;;;;;;;;;;;15.30;99.90;;;;;;8387448;28;20364;-76
2022/06/13 21:31:43;;;;;;;;;;;15.20;99.90;;;;;;8399674;28;19924;-76
2022/06/13 21:35:45;;;;;;;;;;;15.20;99.90;;;;;;8391967;28;20210;-76
2022/06/13 21:39:47;;;;;;;;;;;15.10;99.90;;;;;;8388520;28;20250;-76
2022/06/13 21:43:52;;;;;;;;;;;15.00;99.90;;;;;;8397014;28;19927;-76
2022/06/13 21:47:57;;;;;;;;;;;15.00;99.90;;;;;;8397641;28;19927;-77
2022/06/13 21:52:01;;;;;;;;;;;14.90;99.90;;;;;;8391144;28;21562;-76
2022/06/13 21:56:03;;;;;;;;;;;14.90;99.90;;;;;;8390912;28;19940;-76
2022/06/13 22:00:06;;;;;;;;;;;14.80;99.90;;;;;;8394826;28;19924;-76
2022/06/13 22:04:08;;;;;;;;;;;14.70;99.90;;;;;;8387284;28;19932;-76
2022/06/13 22:08:10;;;;;;;;;;;14.60;99.90;;;;;;8381637;28;19924;-76
2022/06/13 22:12:12;;;;;;;;;;;14.60;99.90;;;;;;8390838;28;19928;-76
2022/06/13 22:16:13;;;;;;;;;;;14.50;99.90;;;;;;8394860;28;19924;-76
2022/06/13 22:20:15;;;;;;;;;;;14.40;99.90;;;;;;8387983;28;19935;-76
2022/06/13 22:24:17;;;;;;;;;;;14.30;99.90;;;;;;8387447;28;19932;-76
2022/06/13 22:28:25;;;;;;;;;;;14.20;99.90;;;;;;8394312;28;19933;-76
2022/06/13 22:32:27;;;;;;;;;;;14.20;99.90;;;;;;8390620;28;19924;-76
2022/06/13 22:36:29;;;;;;;;;;;14.10;99.90;;;;;;8391298;28;19925;-76
2022/06/13 22:40:34;;;;;;;;;;;14.10;99.90;;;;;;8385213;28;19929;-76
2022/06/13 22:44:36;;;;;;;;;;;14.00;99.90;;;;;;8394589;28;20411;-76
2022/06/13 22:52:57;;;;;;;;;;;13.80;99.90;;;;;;8387900;28;20297;-76
2022/06/13 22:56:59;;;;;;;;;;;13.70;99.90;;;;;;8395892;28;19924;-77
2022/06/13 23:01:01;;;;;;;;;;;13.70;99.90;;;;;;8393401;28;19925;-76
2022/06/13 23:05:03;;;;;;;;;;;13.60;99.90;;;;;;8389839;28;19928;-76
2022/06/13 23:09:05;;;;;;;;;;;13.60;99.90;;;;;;8387501;28;20367;-76
2022/06/13 23:13:06;;;;;;;;;;;13.50;99.90;;;;;;8390268;28;19924;-76
2022/06/13 23:17:08;;;;;;;;;;;13.50;99.90;;;;;;8389530;28;19931;-76
2022/06/13 23:21:10;;;;;;;;;;;13.40;99.90;;;;;;8381445;28;19931;-76
2022/06/13 23:25:12;;;;;;;;;;;13.40;99.90;;;;;;8393495;28;20396;-76
2022/06/13 23:29:14;;;;;;;;;;;13.30;99.90;;;;;;8394554;28;19961;-76
2022/06/13 23:33:15;;;;;;;;;;;13.20;99.90;;;;;;8385717;28;19929;-76
2022/06/13 23:37:17;;;;;;;;;;;13.20;99.90;;;;;;8394286;28;19931;-76
2022/06/13 23:41:19;;;;;;;;;;;13.20;99.90;;;;;;8383753;28;19925;-79
2022/06/13 23:45:21;;;;;;;;;;;13.10;99.90;;;;;;8381036;28;19943;-76
2022/06/13 23:49:23;;;;;;;;;;;13.00;99.90;;;;;;8390075;28;19944;-76
2022/06/13 23:53:24;;;;;;;;;;;13.00;99.90;;;;;;8383519;28;20276;-76
2022/06/13 23:57:26;;;;;;;;;;;13.00;99.90;;;;;;8391953;28;19924;-76
